Time;durP1;ratioP1;P1;durP2;ratioP2;P2;SDS_P1;SDS_P2;PMS_P1;PMS_P2;Temp;Humidity;BMP_temperature;BMP_pressure;BME280_temperature;BME280_humidity;BME280_pressure;Samples;Min_cycle;Max_cycle;Signal;HPM_P1;HPM_P2
2023/10/27 00:05:11;;;;;;;21.08;7.10;;;;;;;22.21;100.00;100679.84;20957810;28;20079;-75
2023/10/27 00:15:35;;;;;;;19.55;7.45;;;;;;;22.25;100.00;100665.34;21007229;28;20171;-73
2023/10/27 00:25:57;;;;;;;22.42;6.65;;;;;;;22.28;100.00;100672.47;20992409;28;20052;-74
2023/10/27 00:36:21;;;;;;;19.15;7.60;;;;;;;22.29;100.00;100660.78;20964311;28;20139;-74
2023/10/27 00:46:45;;;;;;;22.92;7.63;;;;;;;22.29;100.00;100655.41;20994656;28;20169;-74
2023/10/27 00:57:09;;;;;;;25.70;8.07;;;;;;;22.29;100.00;100651.81;20995525;28;20080;-74
2023/10/27 01:07:31;;;;;;;26.10;8.30;;;;;;;22.29;100.00;100660.78;20961832;28;20561;-73
2023/10/27 01:17:55;;;;;;;29.65;8.20;;;;;;;22.32;100.00;100675.94;20993084;28;20045;-73
2023/10/27 01:28:20;;;;;;;24.55;7.95;;;;;;;22.33;100.00;100689.31;21003902;28;20047;-73
2023/10/27 01:38:43;;;;;;;23.33;7.72;;;;;;;22.33;100.00;100681.25;20991383;28;20080;-74
2023/10/27 01:49:07;;;;;;;20.90;6.63;;;;;;;22.31;100.00;100703.75;20981924;28;20079;-73
2023/10/27 01:59:30;;;;;;;21.88;7.60;;;;;;;22.26;100.00;100680.56;20989094;28;20106;-73
2023/10/27 02:09:59;;;;;;;23.42;7.28;;;;;;;22.25;100.00;100681.50;20972923;28;20346;-73
2023/10/27 02:20:21;;;;;;;18.33;6.68;;;;;;;22.20;100.00;100675.41;21001853;28;20044;-75
2023/10/27 02:30:46;;;;;;;18.88;6.47;;;;;;;;;;20989137;28;20048;-74
2023/10/27 02:41:09;;;;;;;23.67;6.82;;;;;;;22.17;100.00;100693.47;20992210;28;20037;-74
2023/10/27 02:51:33;;;;;;;23.95;6.40;;;;;;;22.16;100.00;100715.91;20988130;28;20056;-74
2023/10/27 03:01:58;;;;;;;20.02;5.93;;;;;;;22.10;100.00;100726.88;20987791;28;20049;-75
2023/10/27 03:12:22;;;;;;;19.52;6.05;;;;;;;22.04;100.00;100748.56;20986069;28;20040;-74
2023/10/27 03:22:44;;;;;;;22.88;6.70;;;;;;;21.98;100.00;100743.38;20966748;28;20052;-74
2023/10/27 03:33:08;;;;;;;22.48;6.90;;;;;;;21.91;100.00;100731.91;20943528;28;20443;-74
2023/10/27 03:43:31;;;;;;;21.08;7.05;;;;;;;21.81;100.00;100736.69;21005969;28;20493;-74
2023/10/27 03:53:56;;;;;;;21.42;6.10;;;;;;;21.74;100.00;100740.50;20960762;28;20055;-73
2023/10/27 04:04:19;;;;;;;25.38;6.93;;;;;;;21.78;100.00;100728.75;20996223;28;20057;-74
2023/10/27 04:14:43;;;;;;;27.98;6.95;;;;;;;21.82;100.00;100740.25;20996547;28;20049;-73
2023/10/27 04:25:06;;;;;;;26.58;6.50;;;;;;;21.80;100.00;100755.53;20937849;28;20094;-73
2023/10/27 04:35:30;;;;;;;24.90;6.35;;;;;;;21.80;100.00;100763.59;20970764;28;20356;-73
2023/10/27 04:45:53;;;;;;;20.13;5.90;;;;;;;21.79;100.00;100768.09;20977687;28;20049;-74
2023/10/27 04:56:17;;;;;;;21.67;6.40;;;;;;;21.88;100.00;100780.38;20980453;28;20044;-74
2023/10/27 05:06:40;;;;;;;24.23;7.32;;;;;;;21.96;100.00;100794.50;20995064;28;20136;-74
2023/10/27 05:17:04;;;;;;;24.63;5.97;;;;;;;22.13;100.00;100816.38;21016466;28;20049;-74
2023/10/27 05:27:26;;;;;;;23.23;6.10;;;;;;;22.41;100.00;100828.97;21007835;28;20113;-75
2023/10/27 05:37:51;;;;;;;26.48;5.57;;;;;;;22.78;100.00;100850.19;20991576;28;20044;-75
2023/10/27 05:48:13;;;;;;;23.48;4.97;;;;;;;23.18;100.00;100857.78;20964267;28;20037;-74
2023/10/27 05:58:38;;;;;;;21.88;5.05;;;;;;;23.64;100.00;100866.03;20999124;28;20129;-74
2023/10/27 06:09:01;;;;;;;23.05;4.47;;;;;;;24.07;100.00;100864.44;20880688;28;20053;-75
2023/10/27 06:19:25;;;;;;;18.95;4.45;;;;;;;24.48;100.00;100877.22;20849977;28;20104;-74
2023/10/27 06:29:48;;;;;;;21.77;5.10;;;;;;;24.95;100.00;100875.31;20913857;28;20535;-74
2023/10/27 06:40:13;;;;;;;24.00;4.75;;;;;;;25.49;100.00;100873.00;20911622;28;20079;-75
2023/10/27 06:50:36;;;;;;;28.67;4.45;;;;;;;25.86;100.00;100886.69;21000851;28;20089;-74
2023/10/27 07:01:06;;;;;;;26.55;5.40;;;;;;;26.37;100.00;100896.06;20968533;28;20036;-74
2023/10/27 07:11:28;;;;;;;24.00;4.30;;;;;;;26.72;100.00;100889.78;20977491;28;20057;-75
2023/10/27 07:21:52;;;;;;;18.02;4.97;;;;;;;27.10;100.00;100904.19;20921750;28;20053;-75
2023/10/27 07:32:15;;;;;;;29.38;4.78;;;;;;;27.57;100.00;100895.47;20929062;28;20059;-74
2023/10/27 07:42:39;;;;;;;20.98;4.90;;;;;;;27.70;100.00;100891.13;20866604;28;20048;-74
2023/10/27 07:53:01;;;;;;;21.40;5.07;;;;;;;28.11;100.00;100881.63;20882948;28;20083;-75
2023/10/27 08:03:26;;;;;;;23.60;4.95;;;;;;;28.44;98.08;100878.03;20883260;28;20057;-74
2023/10/27 08:13:48;;;;;;;26.40;4.45;;;;;;;28.87;88.10;100884.63;20863074;28;20410;-73
2023/10/27 08:24:14;;;;;;;33.30;4.93;;;;;;;29.18;82.50;100897.28;20880073;28;20370;-74
2023/10/27 08:34:36;;;;;;;27.30;5.20;;;;;;;29.67;72.70;100887.03;20850782;28;20052;-74
2023/10/27 08:45:01;;;;;;;30.42;5.18;;;;;;;29.89;53.87;100873.84;20909377;28;20047;-74
2023/10/27 08:55:25;;;;;;;32.00;5.90;;;;;;;30.13;49.29;100856.97;20944329;28;20045;-74
2023/10/27 09:05:49;;;;;;;30.98;5.40;;;;;;;29.81;44.33;100851.69;20942283;28;20053;-74
2023/10/27 09:16:25;;;;;;;32.30;5.20;;;;;;;29.97;41.87;100832.56;20992012;28;20049;-74
2023/10/27 09:26:50;;;;;;;23.20;5.37;;;;;;;30.17;42.04;100809.50;20934056;28;20048;-74
2023/10/27 09:37:13;;;;;;;32.13;5.97;;;;;;;30.00;41.48;100792.38;20969925;28;20048;-74
2023/10/27 09:47:45;;;;;;;31.17;5.43;;;;;;;30.06;42.57;100777.53;21004579;28;20106;-75
2023/10/27 09:58:08;;;;;;;32.97;5.55;;;;;;;30.04;43.54;100776.72;20941146;28;20544;-74
2023/10/27 10:08:35;;;;;;;23.52;5.03;;;;;;;30.26;42.74;100757.13;20970086;28;20048;-74
2023/10/27 10:18:58;;;;;;;23.50;4.97;;;;;;;30.12;42.10;100749.88;21013676;28;20135;-74
2023/10/27 10:29:32;;;;;;;23.38;4.85;;;;;;;30.36;43.09;100731.03;21014533;28;20056;-74
2023/10/27 10:40:22;;;;;;;27.48;5.35;;;;;;;30.15;45.02;100721.53;21000078;28;20044;-73
2023/10/27 10:50:48;;;;;;;26.73;4.35;;;;;;;29.93;48.00;100722.94;20979598;28;20049;-74
2023/10/27 11:01:17;;;;;;;25.05;5.05;;;;;;;29.92;48.69;100721.22;20883504;28;20056;-74
2023/10/27 11:11:42;;;;;;;28.10;5.13;;;;;;;29.91;52.51;100710.41;20934228;28;20049;-74
2023/10/27 11:22:05;;;;;;;27.63;5.45;;;;;;;29.74;57.04;100711.47;20856489;28;20045;-73
2023/10/27 11:32:30;;;;;;;26.67;4.95;;;;;;;29.37;63.64;100695.78;20871071;28;20048;-74
2023/10/27 11:42:52;;;;;;;18.88;4.47;;;;;;;29.06;69.29;100705.84;20865784;28;20052;-74
2023/10/27 11:53:41;;;;;;;14.77;4.38;;;;;;;28.84;79.43;100709.00;21200928;27;20918;-73
2023/10/27 12:04:05;;;;;;;20.75;4.38;;;;;;;28.71;81.59;100699.81;21203567;27;20094;-72
2023/10/27 12:14:29;;;;;;;25.75;5.07;;;;;;;28.59;86.54;100691.50;21194881;27;20129;-74
2023/10/27 12:24:53;;;;;;;24.20;4.60;;;;;;;28.50;90.22;100706.50;21203946;27;20051;-73
2023/10/27 12:35:21;;;;;;;23.92;5.07;;;;;;;28.35;93.33;100693.88;21201425;27;20047;-74
2023/10/27 12:45:43;;;;;;;19.73;4.38;;;;;;;28.24;96.70;100683.63;21202950;27;20749;-74
2023/10/27 12:56:08;;;;;;;25.95;4.90;;;;;;;28.12;98.72;100666.19;21178325;27;20043;-74
2023/10/27 13:06:31;;;;;;;24.33;5.55;;;;;;;28.05;99.92;100653.94;21130773;27;20067;-74
2023/10/27 13:16:55;;;;;;;19.60;4.43;;;;;;;27.93;100.00;100651.06;21134503;27;20039;-74
2023/10/27 13:27:18;;;;;;;12.30;3.45;;;;;;;27.83;100.00;100647.97;21133338;27;20373;-74
2023/10/27 13:37:43;;;;;;;23.40;4.85;;;;;;;27.64;100.00;100656.31;21125223;27;20085;-75
2023/10/27 13:48:09;;;;;;;25.17;4.95;;;;;;;27.45;100.00;100635.69;21133699;27;20590;-74
2023/10/27 13:58:44;;;;;;;29.65;4.85;;;;;;;27.22;100.00;100637.88;21115642;27;20047;-74
2023/10/27 14:09:08;;;;;;;28.60;5.43;;;;;;;27.03;100.00;100637.13;21131331;27;20059;-75
2023/10/27 14:19:33;;;;;;;24.75;4.80;;;;;;;26.79;100.00;100631.16;21134183;27;20123;-76
2023/10/27 14:29:55;;;;;;;21.17;4.97;;;;;;;26.58;100.00;100648.56;21130520;27;20036;-76
2023/10/27 14:40:21;;;;;;;23.73;4.97;;;;;;;26.44;100.00;100643.88;21136545;27;20051;-76
2023/10/27 14:50:44;;;;;;;21.67;4.90;;;;;;;26.26;100.00;100638.50;21121714;27;20551;-75
2023/10/27 15:01:10;;;;;;;23.15;5.65;;;;;;;26.04;100.00;100638.69;21106879;27;20171;-75
2023/10/27 15:11:33;;;;;;;26.05;5.78;;;;;;;25.84;100.00;100655.91;21115334;27;20043;-74
2023/10/27 15:21:57;;;;;;;20.33;6.05;;;;;;;25.63;100.00;100670.47;21116433;27;20056;-75
2023/10/27 15:32:19;;;;;;;26.65;5.78;;;;;;;25.46;100.00;100703.72;21132235;27;20096;-75
2023/10/27 15:42:43;;;;;;;25.70;6.22;;;;;;;25.33;100.00;100703.41;21132321;28;20558;-75
2023/10/27 15:53:06;;;;;;;24.85;6.38;;;;;;;25.18;100.00;100723.00;21117726;28;20120;-75
2023/10/27 16:03:32;;;;;;;28.33;6.57;;;;;;;25.04;100.00;100747.06;21132161;28;20071;-75
2023/10/27 16:13:54;;;;;;;27.67;7.68;;;;;;;24.93;100.00;100766.47;21116280;28;20499;-76
2023/10/27 16:24:18;;;;;;;26.75;7.20;;;;;;;24.82;100.00;100790.28;21160576;28;20337;-75
2023/10/27 16:34:41;;;;;;;32.17;7.80;;;;;;;24.74;100.00;100797.88;21153947;27;20253;-72
2023/10/27 16:45:06;;;;;;;32.20;7.25;;;;;;;24.72;100.00;100820.47;21139206;27;20052;-75
2023/10/27 16:55:31;;;;;;;33.45;7.18;;;;;;;24.68;100.00;100826.94;21164554;27;20039;-76
2023/10/27 17:05:57;;;;;;;32.03;7.45;;;;;;;24.65;100.00;100846.84;21144066;28;20364;-76
2023/10/27 17:16:20;;;;;;;36.60;7.38;;;;;;;24.65;100.00;100854.06;21157844;28;20058;-76
2023/10/27 17:26:44;;;;;;;30.75;6.60;;;;;;;24.50;100.00;100875.34;21156046;28;20048;-76
2023/10/27 17:37:06;;;;;;;29.77;6.15;;;;;;;24.34;100.00;100886.81;21171411;27;20050;-75
2023/10/27 17:47:30;;;;;;;33.67;7.45;;;;;;;24.27;100.00;100901.50;21145793;28;20056;-75
2023/10/27 17:57:53;;;;;;;29.08;6.57;;;;;;;24.15;100.00;100889.31;21141464;28;20089;-76
2023/10/27 18:08:18;;;;;;;31.52;7.93;;;;;;;23.99;100.00;100882.72;21139804;28;20055;-75
2023/10/27 18:18:40;;;;;;;32.97;7.72;;;;;;;23.81;100.00;100892.41;21135962;28;20069;-76
2023/10/27 18:29:08;;;;;;;38.03;8.07;;;;;;;23.67;100.00;100890.22;21132296;28;20059;-76
2023/10/27 18:39:30;;;;;;;35.00;7.63;;;;;;;23.51;100.00;100898.88;21147963;28;20047;-77
2023/10/27 18:49:54;;;;;;;33.42;8.00;;;;;;;23.37;100.00;100907.41;21135580;28;20109;-76
2023/10/27 19:00:22;;;;;;;32.58;7.80;;;;;;;23.29;100.00;100909.53;21147908;28;20051;-76
2023/10/27 19:10:46;;;;;;;34.03;8.05;;;;;;;23.11;100.00;100915.50;21147141;28;20042;-75
2023/10/27 19:21:10;;;;;;;30.08;7.10;;;;;;;22.96;100.00;100919.63;21106914;28;20036;-76
2023/10/27 19:31:34;;;;;;;34.80;7.57;;;;;;;22.79;100.00;100928.22;21126509;28;20403;-76
2023/10/27 19:41:57;;;;;;;30.58;7.13;;;;;;;22.72;100.00;100939.19;21135003;28;20043;-75
2023/10/27 19:52:22;;;;;;;34.53;8.70;;;;;;;22.61;100.00;100945.81;21137825;28;20109;-76
2023/10/27 20:02:44;;;;;;;34.30;7.68;;;;;;;22.49;100.00;100940.81;21142068;28;20066;-75
2023/10/27 20:13:09;;;;;;;29.73;7.57;;;;;;;22.39;100.00;100938.41;21142009;28;20059;-75
2023/10/27 20:23:32;;;;;;;41.50;8.52;;;;;;;;;;21124987;28;20486;-75
2023/10/27 20:33:56;;;;;;;35.55;7.45;;;;;;;22.08;100.00;100946.53;21147338;28;20055;-76
2023/10/27 20:44:18;;;;;;;30.75;8.07;;;;;;;22.07;100.00;100944.75;21159879;28;20062;-75
2023/10/27 20:54:43;;;;;;;28.42;8.10;;;;;;;22.00;100.00;100965.56;21159212;28;20043;-75
2023/10/27 21:05:08;;;;;;;26.38;7.55;;;;;;;21.91;100.00;100975.66;21158608;28;20647;-75
2023/10/27 21:15:32;;;;;;;30.13;7.25;;;;;;;21.89;100.00;100978.41;21132053;28;20426;-75
2023/10/27 21:25:58;;;;;;;34.95;8.55;;;;;;;21.78;100.00;100969.75;21139661;28;20075;-76
2023/10/27 21:36:23;;;;;;;28.45;8.15;;;;;;;21.69;100.00;100954.75;21156836;27;20483;-76
2023/10/27 21:46:45;;;;;;;27.98;6.97;;;;;;;21.62;100.00;100953.13;21147975;28;20759;-75
2023/10/27 21:57:10;;;;;;;33.88;7.40;;;;;;;21.35;100.00;100944.00;21138366;28;20627;-75
2023/10/27 22:07:33;;;;;;;28.55;7.63;;;;;;;21.20;100.00;100939.00;21118001;27;20052;-75
2023/10/27 22:17:59;;;;;;;32.13;8.50;;;;;;;21.20;100.00;100938.16;21153931;28;20044;-75
2023/10/27 22:28:21;;;;;;;30.67;7.38;;;;;;;21.04;100.00;100934.91;21138387;28;20055;-76
2023/10/27 22:38:45;;;;;;;23.95;6.55;;;;;;;21.09;100.00;100933.00;21152765;28;20044;-75
2023/10/27 22:49:08;;;;;;;32.22;7.60;;;;;;;21.00;100.00;100931.41;21134960;28;20051;-76
2023/10/27 22:59:32;;;;;;;33.08;7.90;;;;;;;21.02;100.00;100937.63;21150779;27;20054;-76
2023/10/27 23:09:55;;;;;;;33.20;6.82;;;;;;;20.97;100.00;100930.63;21159959;27;20101;-76
2023/10/27 23:20:21;;;;;;;29.38;7.00;;;;;;;20.99;100.00;100926.09;21194584;27;20055;-76
2023/10/27 23:30:48;;;;;;;28.13;6.85;;;;;;;20.94;100.00;100917.25;21174053;27;20570;-76
2023/10/27 23:41:12;;;;;;;25.55;6.80;;;;;;;20.83;100.00;100914.84;21133903;28;20055;-75
2023/10/27 23:51:34;;;;;;;25.35;6.40;;;;;;;20.73;100.00;100902.59;21133458;27;20104;-76
